Okpoma Airport

NG-0006 · Bayelsa, Nigeria

METAR historie NG-0006 · Okpoma Airport

Hieronder zie je METAR's van de afgelopen dagen. Kies een jaar om door oudere METAR's te bladeren, vanaf het jaar 2007.

22 april 2024

Tijd Code Weer Temp. Zicht Plafond Wind METAR/SPECI
04:00
V
27 °C 8 km - 360° 360° 0 kt METAR DNPO 220300Z 00000KT 8000 SCT008 27/25 Q1007 NOSIG
02:00
V
27 °C 8 km - 360° 360° 0 kt METAR DNPO 220100Z 00000KT 8000 SCT008 27/26 Q1007 NOSIG
01:00
V
28 °C 8 km - 360° 360° 0 kt METAR DNPO 220000Z 00000KT 8000 SCT008 28/26 Q1008 NOSIG
00:00
V
28 °C 10 km+ - 360° 360° 0 kt METAR DNPO 212300Z 00000KT 9999 SCT009 28/26 Q1009 NOSIG

21 april 2024

Tijd Code Weer Temp. Zicht Plafond Wind METAR/SPECI
23:00
V
29 °C 10 km+ - 360° 360° 0 kt METAR DNPO 212200Z 00000KT 9999 SCT009 29/26 Q1008 NOSIG
20:00
V
30 °C 10 km+ - 180° 180° 5 kt METAR DNPO 211900Z 18005KT 9999 SCT010 30/24 Q1006 NOSIG
19:00
V
32 °C 10 km+ - 190° 190° 9 kt METAR DNPO 211800Z 19009KT 9999 SCT011 32/23 Q1006 NOSIG
18:00
V
33 °C 10 km+ - 190° 190° 7 kt METAR DNPO 211700Z 19007KT 9999 SCT013 33/24 Q1005 NOSIG
17:00
V
35 °C 10 km+ - 170° 170° 8 kt METAR DNPO 211600Z 17008KT 9999 SCT014 35/24 Q1005 NOSIG
16:00
V
35 °C 10 km+ - 200° 200° 9 kt METAR DNPO 211500Z 20009KT 9999 BKN 015 35/25 Q1005 NOSIG
14:00
M
36 °C 10 km+ 1.500 ft 180° 180° 10 kt METAR DNPO 211300Z 18010KT 9999 BKN015 36/25 Q1006 NOSIG
12:00
M
34 °C 10 km+ 1.300 ft 240° 240° 5 kt METAR DNPO 211100Z 24005KT 9999 BKN013 34/25 Q1009 NOSIG
08:00
V
28 °C 10 km+ - 360° 360° 0 kt METAR DNPO 210700Z 00000KT 9999 FEW270 28/27 Q1009 NOSIG
00:00
V
29 °C 10 km+ - 360° 360° 0 kt METAR DNPO 202300Z 00000KT 9999 SCT09 29/26 Q1008 NOSIG

20 april 2024

Tijd Code Weer Temp. Zicht Plafond Wind METAR/SPECI
23:00
V
29 °C 10 km+ - 360° 360° 0 kt METAR DNPO 202200Z 00000KT 9999 SCT009 29/26 Q1008 NOSIG
21:00
V
30 °C 10 km+ - 210° 210° 4 kt METAR DNPO 202000Z 21004KT 9999 SCT010 30/26 Q1008 NOSIG
19:00
M
32 °C 10 km+ 1.100 ft 160° 160° 8 kt METAR DNPO 201800Z 16008KT 9999 BKN011 32/26 Q1006 NOSIG
18:00
M
34 °C 10 km+ 1.300 ft 240° 240° 5 kt METAR DNPO 201700Z 24005KT 9999 BKN013 34/24 Q1005 NOSIG
17:00
M
35 °C 10 km+ 1.400 ft 200° 200° 5 kt METAR DNPO 201600Z 20005KT 9999 BKN014 35/25 Q1005 NOSIG
16:00
M
36 °C 10 km+ 1.400 ft 270° 270° 5 kt METAR DNPO 201500Z 27005KT 9999 BKN014 36/24 Q1005 NOSIG
15:00
V
36 °C 10 km+ - 180° 180° 6 kt METAR DNPO 201400Z 18006KT 9999 SCT015 36/24 Q1006 NOSIG
14:00
V
36 °C 10 km+ - 300° 300° 5 kt METAR DNPO 201300Z 30005KT 9999 SCT015 36/24 Q1007 NOSIG
13:00
V
35 °C 10 km+ - 240° 240° 5 kt METAR DNPO 201200Z 24005KT 9999 SCT014 35/24 Q1008 NOSIG
12:00
V
34 °C 10 km+ - 180° 180° 3 kt METAR DNPO 201100Z 18003KT 9999 SCT014 34/24 Q1009 NOSIG
11:00
V
33 °C 10 km+ - 150° 150° 7 kt METAR DNPO 201000Z 15007KT 9999 SCT012 33/24 Q1010 NOSIG
10:00
V
30 °C 10 km+ - 130° 130° 5 kt METAR DNPO 200900Z 13005KT 9999 SCT010 30/24 Q1010 NOSIG
09:00
V
28 °C 10 km+ - 070° 070° 3 kt METAR DNPO 200800Z 07003KT 9999 SCT009 28/23 Q1010 NOSIG
08:00
V
25 °C 8 km - 320° 320° 3 kt METAR DNPO 200700Z 32003KT 8000 SCT008 25/24 Q1009 NOSIG
00:00
I
27 °C 10 km+ 900 ft 360° 360° 0 kt METAR DNPO 192300Z 00000KT 9999 BKN009 27/24 Q1008 NOSIG

19 april 2024

Tijd Code Weer Temp. Zicht Plafond Wind METAR/SPECI
21:00
I
27 °C 10 km+ 900 ft 130° 130° 10 kt METAR DNPO 192000Z 13010KT 9999 TS BKN009 FEW020CB 27/24 Q1011 TEMPO 5000 -TSRA TS TO NE
20:00
V
30 °C 10 km+ - 120° 120° 10 kt METAR DNPO 191900Z 12010KT 9999 SCT010 FEW020CB 30/24 Q1010 TEMPO TSRA
18:00
V
33 °C 10 km+ - 170° 170° 7 kt METAR DNPO 191700Z 17007KT 9999 SCT013 FEW022CB 33/25 Q1008 NOSIG
17:00
V
34 °C 10 km+ - 170° 170° 8 kt METAR DNPO 191600Z 17008KT 9999 SCT013 FEW022CB 34/25 Q1007 NOSIG
16:00
M
34 °C 10 km+ 1.300 ft 220° 220° 9 kt METAR DNPO 191500Z 22009KT 9999 BKN013 FEW022CB 34/25 Q1007 NOSIG
14:00
M
33 °C 10 km+ 1.300 ft 180° 180° 10 kt METAR DNPO 191300Z 18010KT 9999 BKN013 FEW022CB 33/27 Q1009 NOSIG
11:00
M
32 °C 10 km+ 1.200 ft 190° 190° 6 kt METAR DNPO 191000Z 19006KT 9999 BKN012 FEW021CB 32/27 Q1012 NOSIG
10:00
M
30 °C 10 km+ 1.000 ft 190° 190° 8 kt METAR DNPO 190900Z 19008KT 9999 BKN010 FEW020CB 30/26 Q1012 NOSIG
09:00
V
29 °C 10 km+ - 360° 360° 0 kt METAR DNPO 190800Z 00000KT 9999 SCT009 29/27 Q1011 NOSIG
08:00
I
27 °C 2 km - 360° 360° 0 kt METAR DNPO 190700Z 00000KT 2000 HZ SCT008 27/26 Q1011 BECMG 5000
07:00
I
25 °C 1,5 km - 360° 360° 0 kt METAR DNPO 190600Z 00000KT 1500 BR FEW008 25/24 Q1010 BECMG 3000
Wijziging doorgeven